sensor_id;sensor_type;location;lat;lon;timestamp;temperature;humidity
23237;DHT22;11787;52.018;8.570;2024-02-16T00:01:31;10.50;99.90
23237;DHT22;11787;52.018;8.570;2024-02-16T00:03:56;10.50;99.90
23237;DHT22;11787;52.018;8.570;2024-02-16T00:06:22;10.40;99.90
23237;DHT22;11787;52.018;8.570;2024-02-16T00:08:47;10.40;99.90
23237;DHT22;11787;52.018;8.570;2024-02-16T00:11:13;10.40;99.90
23237;DHT22;11787;52.018;8.570;2024-02-16T00:13:38;10.40;99.90
23237;DHT22;11787;52.018;8.570;2024-02-16T00:16:04;10.40;99.90
23237;DHT22;11787;52.018;8.570;2024-02-16T00:18:29;10.30;99.90
23237;DHT22;11787;52.018;8.570;2024-02-16T00:20:55;10.30;99.90
23237;DHT22;11787;52.018;8.570;2024-02-16T00:23:21;10.30;99.90
23237;DHT22;11787;52.018;8.570;2024-02-16T00:25:48;10.30;99.90
23237;DHT22;11787;52.018;8.570;2024-02-16T00:28:13;10.20;99.90
23237;DHT22;11787;52.018;8.570;2024-02-16T00:30:38;10.20;99.90
23237;DHT22;11787;52.018;8.570;2024-02-16T00:33:04;10.20;99.90
23237;DHT22;11787;52.018;8.570;2024-02-16T00:35:29;10.20;99.90
23237;DHT22;11787;52.018;8.570;2024-02-16T00:38:01;10.20;99.90
23237;DHT22;11787;52.018;8.570;2024-02-16T00:40:26;10.20;99.90
23237;DHT22;11787;52.018;8.570;2024-02-16T00:42:52;10.20;99.90
23237;DHT22;11787;52.018;8.570;2024-02-16T00:45:17;10.20;99.90
23237;DHT22;11787;52.018;8.570;2024-02-16T00:47:43;10.20;99.90
23237;DHT22;11787;52.018;8.570;2024-02-16T00:50:11;10.10;99.90
23237;DHT22;11787;52.018;8.570;2024-02-16T00:52:36;10.10;99.90
23237;DHT22;11787;52.018;8.570;2024-02-16T00:55:02;10.10;99.90
23237;DHT22;11787;52.018;8.570;2024-02-16T00:57:29;10.00;99.90
23237;DHT22;11787;52.018;8.570;2024-02-16T00:59:54;10.00;99.90
23237;DHT22;11787;52.018;8.570;2024-02-16T01:02:20;10.00;99.90
23237;DHT22;11787;52.018;8.570;2024-02-16T01:04:46;10.00;99.90
23237;DHT22;11787;52.018;8.570;2024-02-16T01:07:12;10.00;99.90
23237;DHT22;11787;52.018;8.570;2024-02-16T01:09:37;10.00;99.90
23237;DHT22;11787;52.018;8.570;2024-02-16T01:12:03;9.90;99.90
23237;DHT22;11787;52.018;8.570;2024-02-16T01:14:28;9.90;99.90
23237;DHT22;11787;52.018;8.570;2024-02-16T01:16:54;9.90;99.90
23237;DHT22;11787;52.018;8.570;2024-02-16T01:19:19;9.90;99.90
23237;DHT22;11787;52.018;8.570;2024-02-16T01:21:45;9.90;99.90
23237;DHT22;11787;52.018;8.570;2024-02-16T01:24:13;9.90;99.90
23237;DHT22;11787;52.018;8.570;2024-02-16T01:26:38;9.90;99.90
23237;DHT22;11787;52.018;8.570;2024-02-16T01:29:03;9.90;99.90
23237;DHT22;11787;52.018;8.570;2024-02-16T01:31:29;9.80;99.90
23237;DHT22;11787;52.018;8.570;2024-02-16T01:33:54;9.80;99.90
23237;DHT22;11787;52.018;8.570;2024-02-16T01:36:20;9.80;99.90
23237;DHT22;11787;52.018;8.570;2024-02-16T01:38:45;9.80;99.90
23237;DHT22;11787;52.018;8.570;2024-02-16T01:41:11;9.70;99.90
23237;DHT22;11787;52.018;8.570;2024-02-16T01:43:37;9.80;99.90
23237;DHT22;11787;52.018;8.570;2024-02-16T01:46:03;9.70;99.90
23237;DHT22;11787;52.018;8.570;2024-02-16T01:48:29;9.80;99.90
23237;DHT22;11787;52.018;8.570;2024-02-16T01:50:54;9.70;99.90
23237;DHT22;11787;52.018;8.570;2024-02-16T01:53:20;9.70;99.90
23237;DHT22;11787;52.018;8.570;2024-02-16T01:55:46;9.70;99.90
23237;DHT22;11787;52.018;8.570;2024-02-16T01:58:12;9.70;99.90
23237;DHT22;11787;52.018;8.570;2024-02-16T02:00:37;9.70;99.90
23237;DHT22;11787;52.018;8.570;2024-02-16T02:03:03;9.70;99.90
23237;DHT22;11787;52.018;8.570;2024-02-16T02:05:29;9.70;99.90
23237;DHT22;11787;52.018;8.570;2024-02-16T02:07:54;9.70;99.90
23237;DHT22;11787;52.018;8.570;2024-02-16T02:10:20;9.60;99.90
23237;DHT22;11787;52.018;8.570;2024-02-16T02:12:45;9.60;99.90
23237;DHT22;11787;52.018;8.570;2024-02-16T02:15:11;9.60;99.90
23237;DHT22;11787;52.018;8.570;2024-02-16T02:17:37;9.60;99.90
23237;DHT22;11787;52.018;8.570;2024-02-16T02:20:02;9.60;99.90
23237;DHT22;11787;52.018;8.570;2024-02-16T02:22:29;9.50;99.90
23237;DHT22;11787;52.018;8.570;2024-02-16T02:24:54;9.50;99.90
23237;DHT22;11787;52.018;8.570;2024-02-16T02:27:23;9.50;99.90
23237;DHT22;11787;52.018;8.570;2024-02-16T02:29:49;9.60;99.90
23237;DHT22;11787;52.018;8.570;2024-02-16T02:32:15;9.60;99.90
23237;DHT22;11787;52.018;8.570;2024-02-16T02:34:40;9.60;99.90
23237;DHT22;11787;52.018;8.570;2024-02-16T02:37:06;9.60;99.90
23237;DHT22;11787;52.018;8.570;2024-02-16T02:39:31;9.60;99.90
23237;DHT22;11787;52.018;8.570;2024-02-16T02:41:57;9.60;99.90
23237;DHT22;11787;52.018;8.570;2024-02-16T02:44:23;9.60;99.90
23237;DHT22;11787;52.018;8.570;2024-02-16T02:46:49;9.60;99.90
23237;DHT22;11787;52.018;8.570;2024-02-16T02:49:14;9.60;99.90
23237;DHT22;11787;52.018;8.570;2024-02-16T02:51:39;9.60;99.90
23237;DHT22;11787;52.018;8.570;2024-02-16T02:54:05;9.70;99.90
23237;DHT22;11787;52.018;8.570;2024-02-16T02:56:30;9.70;99.90
23237;DHT22;11787;52.018;8.570;2024-02-16T02:58:56;9.70;99.90
23237;DHT22;11787;52.018;8.570;2024-02-16T03:01:21;9.80;99.90
23237;DHT22;11787;52.018;8.570;2024-02-16T03:03:47;9.70;99.90
23237;DHT22;11787;52.018;8.570;2024-02-16T03:06:16;9.70;99.90
23237;DHT22;11787;52.018;8.570;2024-02-16T03:08:42;9.70;99.90
23237;DHT22;11787;52.018;8.570;2024-02-16T03:11:08;9.80;99.90
23237;DHT22;11787;52.018;8.570;2024-02-16T03:13:33;9.70;99.90
23237;DHT22;11787;52.018;8.570;2024-02-16T03:15:59;9.80;99.90
23237;DHT22;11787;52.018;8.570;2024-02-16T03:18:24;9.80;99.90
23237;DHT22;11787;52.018;8.570;2024-02-16T03:20:50;9.80;99.90
23237;DHT22;11787;52.018;8.570;2024-02-16T03:23:16;9.80;99.90
23237;DHT22;11787;52.018;8.570;2024-02-16T03:25:41;9.70;99.90
23237;DHT22;11787;52.018;8.570;2024-02-16T03:28:13;9.70;99.90
23237;DHT22;11787;52.018;8.570;2024-02-16T03:30:39;9.70;99.90
23237;DHT22;11787;52.018;8.570;2024-02-16T03:33:04;9.70;99.90
23237;DHT22;11787;52.018;8.570;2024-02-16T03:35:30;9.70;99.90
23237;DHT22;11787;52.018;8.570;2024-02-16T03:37:56;9.70;99.90
23237;DHT22;11787;52.018;8.570;2024-02-16T03:40:22;9.70;99.90
23237;DHT22;11787;52.018;8.570;2024-02-16T03:42:47;9.70;99.90
23237;DHT22;11787;52.018;8.570;2024-02-16T03:45:13;9.70;99.90
23237;DHT22;11787;52.018;8.570;2024-02-16T03:47:42;9.60;99.90
23237;DHT22;11787;52.018;8.570;2024-02-16T03:50:07;9.60;99.90
23237;DHT22;11787;52.018;8.570;2024-02-16T03:52:33;9.60;99.90
23237;DHT22;11787;52.018;8.570;2024-02-16T03:54:59;9.60;99.90
23237;DHT22;11787;52.018;8.570;2024-02-16T03:57:24;9.60;99.90
23237;DHT22;11787;52.018;8.570;2024-02-16T03:59:50;9.60;99.90
23237;DHT22;11787;52.018;8.570;2024-02-16T04:02:15;9.60;99.90
23237;DHT22;11787;52.018;8.570;2024-02-16T04:04:41;9.50;99.90
23237;DHT22;11787;52.018;8.570;2024-02-16T04:07:06;9.60;99.90
23237;DHT22;11787;52.018;8.570;2024-02-16T04:09:33;9.60;99.90
23237;DHT22;11787;52.018;8.570;2024-02-16T04:12:00;9.50;99.90
23237;DHT22;11787;52.018;8.570;2024-02-16T04:14:25;9.50;99.90
23237;DHT22;11787;52.018;8.570;2024-02-16T04:16:51;9.50;99.90
23237;DHT22;11787;52.018;8.570;2024-02-16T04:19:17;9.50;99.90
23237;DHT22;11787;52.018;8.570;2024-02-16T04:21:42;9.50;99.90
23237;DHT22;11787;52.018;8.570;2024-02-16T04:24:08;9.50;99.90
23237;DHT22;11787;52.018;8.570;2024-02-16T04:26:33;9.50;99.90
23237;DHT22;11787;52.018;8.570;2024-02-16T04:28:59;9.50;99.90
23237;DHT22;11787;52.018;8.570;2024-02-16T04:31:24;9.50;99.90
23237;DHT22;11787;52.018;8.570;2024-02-16T04:33:50;9.50;99.90
23237;DHT22;11787;52.018;8.570;2024-02-16T04:36:15;9.60;99.90
23237;DHT22;11787;52.018;8.570;2024-02-16T04:38:41;9.60;99.90
23237;DHT22;11787;52.018;8.570;2024-02-16T04:41:06;9.60;99.90
23237;DHT22;11787;52.018;8.570;2024-02-16T04:43:33;9.70;99.90
23237;DHT22;11787;52.018;8.570;2024-02-16T04:45:58;9.70;99.90
23237;DHT22;11787;52.018;8.570;2024-02-16T04:48:25;9.70;99.90
23237;DHT22;11787;52.018;8.570;2024-02-16T04:50:50;9.70;99.90
23237;DHT22;11787;52.018;8.570;2024-02-16T04:53:16;9.70;99.90
23237;DHT22;11787;52.018;8.570;2024-02-16T04:55:42;9.70;99.90
23237;DHT22;11787;52.018;8.570;2024-02-16T04:58:07;9.70;99.90
23237;DHT22;11787;52.018;8.570;2024-02-16T05:00:37;9.70;99.90
23237;DHT22;11787;52.018;8.570;2024-02-16T05:03:03;9.70;99.90
23237;DHT22;11787;52.018;8.570;2024-02-16T05:05:29;9.70;99.90
23237;DHT22;11787;52.018;8.570;2024-02-16T05:07:56;9.70;99.90
23237;DHT22;11787;52.018;8.570;2024-02-16T05:10:21;9.70;99.90
23237;DHT22;11787;52.018;8.570;2024-02-16T05:12:47;9.80;99.90
23237;DHT22;11787;52.018;8.570;2024-02-16T05:15:12;9.80;99.90
23237;DHT22;11787;52.018;8.570;2024-02-16T05:17:38;9.80;99.90
23237;DHT22;11787;52.018;8.570;2024-02-16T05:20:08;9.80;99.90
23237;DHT22;11787;52.018;8.570;2024-02-16T05:22:35;9.80;99.90
23237;DHT22;11787;52.018;8.570;2024-02-16T05:25:00;9.90;99.90
23237;DHT22;11787;52.018;8.570;2024-02-16T05:27:26;10.00;99.90
23237;DHT22;11787;52.018;8.570;2024-02-16T05:48:20;10.00;99.90
23237;DHT22;11787;52.018;8.570;2024-02-16T05:50:47;9.90;99.90
23237;DHT22;11787;52.018;8.570;2024-02-16T05:53:12;9.80;99.90
23237;DHT22;11787;52.018;8.570;2024-02-16T05:55:37;9.80;99.90
23237;DHT22;11787;52.018;8.570;2024-02-16T05:58:03;9.80;99.90
23237;DHT22;11787;52.018;8.570;2024-02-16T06:00:33;9.80;99.90
23237;DHT22;11787;52.018;8.570;2024-02-16T06:02:58;9.80;99.90
23237;DHT22;11787;52.018;8.570;2024-02-16T06:05:24;9.70;99.90
23237;DHT22;11787;52.018;8.570;2024-02-16T06:07:49;9.70;99.90
23237;DHT22;11787;52.018;8.570;2024-02-16T06:10:15;9.60;99.90
23237;DHT22;11787;52.018;8.570;2024-02-16T06:12:40;9.60;99.90
23237;DHT22;11787;52.018;8.570;2024-02-16T06:15:06;9.60;99.90
23237;DHT22;11787;52.018;8.570;2024-02-16T06:17:31;9.60;99.90
23237;DHT22;11787;52.018;8.570;2024-02-16T06:19:57;9.50;99.90
23237;DHT22;11787;52.018;8.570;2024-02-16T06:22:23;9.50;99.90
23237;DHT22;11787;52.018;8.570;2024-02-16T06:24:48;9.40;99.90
23237;DHT22;11787;52.018;8.570;2024-02-16T06:27:14;9.50;99.90
23237;DHT22;11787;52.018;8.570;2024-02-16T06:29:40;9.50;99.90
23237;DHT22;11787;52.018;8.570;2024-02-16T06:32:05;9.50;99.90
23237;DHT22;11787;52.018;8.570;2024-02-16T06:34:31;9.50;99.90
23237;DHT22;11787;52.018;8.570;2024-02-16T06:36:57;9.50;99.90
23237;DHT22;11787;52.018;8.570;2024-02-16T06:39:22;9.50;99.90
23237;DHT22;11787;52.018;8.570;2024-02-16T06:41:48;9.50;99.90
23237;DHT22;11787;52.018;8.570;2024-02-16T06:44:15;9.50;99.90
23237;DHT22;11787;52.018;8.570;2024-02-16T06:46:41;9.50;99.90
23237;DHT22;11787;52.018;8.570;2024-02-16T06:49:06;9.60;99.90
23237;DHT22;11787;52.018;8.570;2024-02-16T06:51:32;9.60;99.90
23237;DHT22;11787;52.018;8.570;2024-02-16T06:53:57;9.70;99.90
23237;DHT22;11787;52.018;8.570;2024-02-16T06:56:23;9.70;99.90
23237;DHT22;11787;52.018;8.570;2024-02-16T06:58:49;9.80;99.90
23237;DHT22;11787;52.018;8.570;2024-02-16T07:01:15;9.90;99.90
23237;DHT22;11787;52.018;8.570;2024-02-16T07:03:41;10.00;99.90
23237;DHT22;11787;52.018;8.570;2024-02-16T07:06:07;10.10;99.90
23237;DHT22;11787;52.018;8.570;2024-02-16T07:08:38;10.30;99.90
23237;DHT22;11787;52.018;8.570;2024-02-16T07:11:04;10.40;99.90
23237;DHT22;11787;52.018;8.570;2024-02-16T07:13:30;10.50;99.90
23237;DHT22;11787;52.018;8.570;2024-02-16T07:15:56;10.70;99.90
23237;DHT22;11787;52.018;8.570;2024-02-16T07:18:22;10.80;99.90
23237;DHT22;11787;52.018;8.570;2024-02-16T07:20:47;10.80;99.90
23237;DHT22;11787;52.018;8.570;2024-02-16T07:23:13;10.90;99.90
23237;DHT22;11787;52.018;8.570;2024-02-16T07:25:40;11.00;99.90
23237;DHT22;11787;52.018;8.570;2024-02-16T07:28:07;11.10;99.90
23237;DHT22;11787;52.018;8.570;2024-02-16T07:30:33;11.10;99.90
23237;DHT22;11787;52.018;8.570;2024-02-16T07:32:59;11.10;99.90
23237;DHT22;11787;52.018;8.570;2024-02-16T07:35:24;11.10;99.90
23237;DHT22;11787;52.018;8.570;2024-02-16T07:37:50;11.10;99.90
23237;DHT22;11787;52.018;8.570;2024-02-16T07:40:19;11.10;99.90
23237;DHT22;11787;52.018;8.570;2024-02-16T07:42:45;11.10;99.90
23237;DHT22;11787;52.018;8.570;2024-02-16T07:45:11;11.20;99.90
23237;DHT22;11787;52.018;8.570;2024-02-16T07:47:38;11.20;99.90
23237;DHT22;11787;52.018;8.570;2024-02-16T07:50:03;11.30;99.90
23237;DHT22;11787;52.018;8.570;2024-02-16T07:52:31;11.30;99.90
23237;DHT22;11787;52.018;8.570;2024-02-16T07:54:57;11.40;99.90
23237;DHT22;11787;52.018;8.570;2024-02-16T07:57:23;11.50;99.90
23237;DHT22;11787;52.018;8.570;2024-02-16T07:59:48;11.50;99.90
23237;DHT22;11787;52.018;8.570;2024-02-16T08:02:14;11.60;99.90
23237;DHT22;11787;52.018;8.570;2024-02-16T08:04:41;11.70;99.90
23237;DHT22;11787;52.018;8.570;2024-02-16T08:07:07;11.70;99.90
23237;DHT22;11787;52.018;8.570;2024-02-16T08:09:33;11.80;99.90
23237;DHT22;11787;52.018;8.570;2024-02-16T08:11:59;11.80;99.90
23237;DHT22;11787;52.018;8.570;2024-02-16T08:14:25;11.80;99.90
23237;DHT22;11787;52.018;8.570;2024-02-16T08:16:50;11.90;99.90
23237;DHT22;11787;52.018;8.570;2024-02-16T08:19:16;11.90;99.90
23237;DHT22;11787;52.018;8.570;2024-02-16T08:21:41;12.00;99.90
23237;DHT22;11787;52.018;8.570;2024-02-16T08:24:07;12.10;99.90
23237;DHT22;11787;52.018;8.570;2024-02-16T08:26:32;12.20;99.90
23237;DHT22;11787;52.018;8.570;2024-02-16T08:28:58;12.30;99.90
23237;DHT22;11787;52.018;8.570;2024-02-16T08:31:24;12.40;99.90
23237;DHT22;11787;52.018;8.570;2024-02-16T08:33:50;12.40;99.90
23237;DHT22;11787;52.018;8.570;2024-02-16T08:36:15;12.50;99.90
23237;DHT22;11787;52.018;8.570;2024-02-16T08:38:41;12.50;99.90
23237;DHT22;11787;52.018;8.570;2024-02-16T08:41:06;12.50;99.90
23237;DHT22;11787;52.018;8.570;2024-02-16T08:43:32;12.60;99.90
23237;DHT22;11787;52.018;8.570;2024-02-16T08:45:57;12.70;99.90
23237;DHT22;11787;52.018;8.570;2024-02-16T08:48:26;12.80;99.90
23237;DHT22;11787;52.018;8.570;2024-02-16T08:50:51;12.80;99.90
23237;DHT22;11787;52.018;8.570;2024-02-16T08:53:17;12.90;99.90
23237;DHT22;11787;52.018;8.570;2024-02-16T08:55:42;12.90;99.90
23237;DHT22;11787;52.018;8.570;2024-02-16T08:58:08;13.00;99.90
23237;DHT22;11787;52.018;8.570;2024-02-16T09:00:33;13.00;99.90
23237;DHT22;11787;52.018;8.570;2024-02-16T09:02:59;13.00;99.90
23237;DHT22;11787;52.018;8.570;2024-02-16T09:05:27;13.10;99.90
23237;DHT22;11787;52.018;8.570;2024-02-16T09:07:53;13.10;99.90
23237;DHT22;11787;52.018;8.570;2024-02-16T09:10:18;13.20;99.90
23237;DHT22;11787;52.018;8.570;2024-02-16T09:12:44;13.10;99.90
23237;DHT22;11787;52.018;8.570;2024-02-16T09:15:09;13.20;99.90
23237;DHT22;11787;52.018;8.570;2024-02-16T09:17:35;13.20;99.90
23237;DHT22;11787;52.018;8.570;2024-02-16T09:20:00;13.30;99.90
23237;DHT22;11787;52.018;8.570;2024-02-16T09:22:26;13.40;99.90
23237;DHT22;11787;52.018;8.570;2024-02-16T09:24:52;13.40;99.90
23237;DHT22;11787;52.018;8.570;2024-02-16T09:27:17;13.50;99.90
23237;DHT22;11787;52.018;8.570;2024-02-16T09:29:44;13.60;99.90
23237;DHT22;11787;52.018;8.570;2024-02-16T09:32:10;13.60;99.90
23237;DHT22;11787;52.018;8.570;2024-02-16T09:34:35;13.70;99.90
23237;DHT22;11787;52.018;8.570;2024-02-16T09:37:01;13.60;99.90
23237;DHT22;11787;52.018;8.570;2024-02-16T09:39:26;13.70;99.90
23237;DHT22;11787;52.018;8.570;2024-02-16T09:41:53;13.70;99.90
23237;DHT22;11787;52.018;8.570;2024-02-16T09:44:20;13.70;99.90
23237;DHT22;11787;52.018;8.570;2024-02-16T09:46:45;13.80;99.90
23237;DHT22;11787;52.018;8.570;2024-02-16T09:49:11;13.80;99.90
23237;DHT22;11787;52.018;8.570;2024-02-16T09:51:36;13.90;99.90
23237;DHT22;11787;52.018;8.570;2024-02-16T09:54:02;13.90;99.90
23237;DHT22;11787;52.018;8.570;2024-02-16T09:56:28;13.90;99.90
23237;DHT22;11787;52.018;8.570;2024-02-16T09:58:53;13.90;99.90
23237;DHT22;11787;52.018;8.570;2024-02-16T10:01:20;14.00;99.90
23237;DHT22;11787;52.018;8.570;2024-02-16T10:03:46;14.00;99.90
23237;DHT22;11787;52.018;8.570;2024-02-16T10:06:12;14.00;99.90
23237;DHT22;11787;52.018;8.570;2024-02-16T10:09:21;14.00;99.90
23237;DHT22;11787;52.018;8.570;2024-02-16T10:11:31;14.00;99.90
23237;DHT22;11787;52.018;8.570;2024-02-16T10:16:23;14.10;99.90
23237;DHT22;11787;52.018;8.570;2024-02-16T10:18:48;14.20;99.90
23237;DHT22;11787;52.018;8.570;2024-02-16T10:21:23;14.30;99.90
23237;DHT22;11787;52.018;8.570;2024-02-16T10:24:08;14.30;99.90
23237;DHT22;11787;52.018;8.570;2024-02-16T10:26:39;14.50;99.90
23237;DHT22;11787;52.018;8.570;2024-02-16T10:29:07;14.50;99.90
23237;DHT22;11787;52.018;8.570;2024-02-16T10:31:33;14.70;99.90
23237;DHT22;11787;52.018;8.570;2024-02-16T10:34:00;14.70;99.90
23237;DHT22;11787;52.018;8.570;2024-02-16T10:36:27;14.70;99.90
23237;DHT22;11787;52.018;8.570;2024-02-16T10:38:54;14.70;99.90
23237;DHT22;11787;52.018;8.570;2024-02-16T10:41:19;14.80;99.90
23237;DHT22;11787;52.018;8.570;2024-02-16T10:43:46;14.70;99.90
23237;DHT22;11787;52.018;8.570;2024-02-16T10:46:13;14.80;99.90
23237;DHT22;11787;52.018;8.570;2024-02-16T10:48:40;14.90;99.90
23237;DHT22;11787;52.018;8.570;2024-02-16T10:51:06;15.00;99.90
23237;DHT22;11787;52.018;8.570;2024-02-16T10:53:32;14.90;99.90
23237;DHT22;11787;52.018;8.570;2024-02-16T10:55:58;14.90;99.90
23237;DHT22;11787;52.018;8.570;2024-02-16T10:58:26;14.90;99.90
23237;DHT22;11787;52.018;8.570;2024-02-16T11:00:52;15.00;99.90
23237;DHT22;11787;52.018;8.570;2024-02-16T11:03:21;15.00;99.90
23237;DHT22;11787;52.018;8.570;2024-02-16T11:05:48;15.00;99.90
23237;DHT22;11787;52.018;8.570;2024-02-16T11:08:15;15.00;99.90
23237;DHT22;11787;52.018;8.570;2024-02-16T11:10:41;15.10;99.90
23237;DHT22;11787;52.018;8.570;2024-02-16T11:13:06;15.00;99.90
23237;DHT22;11787;52.018;8.570;2024-02-16T11:15:34;15.00;99.90
23237;DHT22;11787;52.018;8.570;2024-02-16T11:18:00;15.00;99.90
23237;DHT22;11787;52.018;8.570;2024-02-16T11:20:26;15.00;99.90
23237;DHT22;11787;52.018;8.570;2024-02-16T11:22:52;15.10;99.90
23237;DHT22;11787;52.018;8.570;2024-02-16T11:25:18;15.10;99.90
23237;DHT22;11787;52.018;8.570;2024-02-16T11:27:46;15.10;99.90
23237;DHT22;11787;52.018;8.570;2024-02-16T11:30:11;15.10;99.90
23237;DHT22;11787;52.018;8.570;2024-02-16T11:32:37;15.10;99.90
23237;DHT22;11787;52.018;8.570;2024-02-16T11:35:06;15.00;99.90
23237;DHT22;11787;52.018;8.570;2024-02-16T11:37:32;15.00;99.90
23237;DHT22;11787;52.018;8.570;2024-02-16T11:39:58;15.00;99.90
23237;DHT22;11787;52.018;8.570;2024-02-16T11:42:23;15.00;99.90
23237;DHT22;11787;52.018;8.570;2024-02-16T11:44:52;15.00;99.90
23237;DHT22;11787;52.018;8.570;2024-02-16T11:47:19;15.00;99.90
23237;DHT22;11787;52.018;8.570;2024-02-16T11:49:44;15.00;99.90
23237;DHT22;11787;52.018;8.570;2024-02-16T11:52:10;15.00;99.90
23237;DHT22;11787;52.018;8.570;2024-02-16T11:54:35;15.00;99.90
23237;DHT22;11787;52.018;8.570;2024-02-16T11:57:02;14.90;99.90
23237;DHT22;11787;52.018;8.570;2024-02-16T11:59:28;14.90;99.90
23237;DHT22;11787;52.018;8.570;2024-02-16T12:01:55;14.90;99.90
23237;DHT22;11787;52.018;8.570;2024-02-16T12:04:27;15.00;99.90
23237;DHT22;11787;52.018;8.570;2024-02-16T12:06:55;15.00;99.90
23237;DHT22;11787;52.018;8.570;2024-02-16T12:09:20;15.00;99.90
23237;DHT22;11787;52.018;8.570;2024-02-16T12:11:47;15.00;99.90
23237;DHT22;11787;52.018;8.570;2024-02-16T12:14:13;15.10;99.90
23237;DHT22;11787;52.018;8.570;2024-02-16T12:16:38;15.10;99.90
23237;DHT22;11787;52.018;8.570;2024-02-16T12:19:04;15.10;99.90
23237;DHT22;11787;52.018;8.570;2024-02-16T12:21:30;15.10;99.90
23237;DHT22;11787;52.018;8.570;2024-02-16T12:23:55;15.10;99.90
23237;DHT22;11787;52.018;8.570;2024-02-16T12:26:21;15.20;99.90
23237;DHT22;11787;52.018;8.570;2024-02-16T12:28:47;15.20;99.90
23237;DHT22;11787;52.018;8.570;2024-02-16T12:31:18;15.30;99.90
23237;DHT22;11787;52.018;8.570;2024-02-16T12:33:43;15.20;99.90
23237;DHT22;11787;52.018;8.570;2024-02-16T12:36:09;15.30;99.90
23237;DHT22;11787;52.018;8.570;2024-02-16T12:38:34;15.30;99.90
23237;DHT22;11787;52.018;8.570;2024-02-16T12:41:00;15.20;99.90
23237;DHT22;11787;52.018;8.570;2024-02-16T12:43:25;15.20;99.90
23237;DHT22;11787;52.018;8.570;2024-02-16T12:45:51;15.20;99.90
23237;DHT22;11787;52.018;8.570;2024-02-16T12:48:16;15.20;99.90
23237;DHT22;11787;52.018;8.570;2024-02-16T12:50:42;15.10;99.90
23237;DHT22;11787;52.018;8.570;2024-02-16T12:53:08;15.10;99.90
23237;DHT22;11787;52.018;8.570;2024-02-16T12:55:34;15.10;99.90
23237;DHT22;11787;52.018;8.570;2024-02-16T12:58:01;15.00;99.90
23237;DHT22;11787;52.018;8.570;2024-02-16T13:00:26;15.00;99.90
23237;DHT22;11787;52.018;8.570;2024-02-16T13:02:52;15.00;99.90
23237;DHT22;11787;52.018;8.570;2024-02-16T13:05:17;15.00;99.90
23237;DHT22;11787;52.018;8.570;2024-02-16T13:07:43;15.00;99.90
23237;DHT22;11787;52.018;8.570;2024-02-16T13:10:08;14.90;99.90
23237;DHT22;11787;52.018;8.570;2024-02-16T13:12:34;14.90;99.90
23237;DHT22;11787;52.018;8.570;2024-02-16T13:15:00;14.90;99.90
23237;DHT22;11787;52.018;8.570;2024-02-16T13:17:27;14.90;99.90
23237;DHT22;11787;52.018;8.570;2024-02-16T13:19:53;14.80;99.90
23237;DHT22;11787;52.018;8.570;2024-02-16T13:22:18;14.80;99.90
23237;DHT22;11787;52.018;8.570;2024-02-16T13:24:45;14.90;99.90
23237;DHT22;11787;52.018;8.570;2024-02-16T13:27:10;14.80;99.90
23237;DHT22;11787;52.018;8.570;2024-02-16T13:29:36;14.90;99.90
23237;DHT22;11787;52.018;8.570;2024-02-16T13:32:03;14.90;99.90
23237;DHT22;11787;52.018;8.570;2024-02-16T13:34:29;14.90;99.90
23237;DHT22;11787;52.018;8.570;2024-02-16T13:36:55;14.90;99.90
23237;DHT22;11787;52.018;8.570;2024-02-16T13:39:21;14.80;99.90
23237;DHT22;11787;52.018;8.570;2024-02-16T13:41:48;14.80;99.90
23237;DHT22;11787;52.018;8.570;2024-02-16T13:44:17;14.80;99.90
23237;DHT22;11787;52.018;8.570;2024-02-16T13:46:42;14.80;99.90
23237;DHT22;11787;52.018;8.570;2024-02-16T13:49:10;14.80;99.90
23237;DHT22;11787;52.018;8.570;2024-02-16T13:51:35;14.80;99.90
23237;DHT22;11787;52.018;8.570;2024-02-16T13:54:01;14.70;99.90
23237;DHT22;11787;52.018;8.570;2024-02-16T13:56:26;14.70;99.90
23237;DHT22;11787;52.018;8.570;2024-02-16T13:58:52;14.70;99.90
23237;DHT22;11787;52.018;8.570;2024-02-16T14:01:17;14.70;99.90
23237;DHT22;11787;52.018;8.570;2024-02-16T14:03:43;14.70;99.90
23237;DHT22;11787;52.018;8.570;2024-02-16T14:06:09;14.70;99.90
23237;DHT22;11787;52.018;8.570;2024-02-16T14:08:36;14.70;99.90
23237;DHT22;11787;52.018;8.570;2024-02-16T14:11:01;14.70;99.90
23237;DHT22;11787;52.018;8.570;2024-02-16T14:13:27;14.60;99.90
23237;DHT22;11787;52.018;8.570;2024-02-16T14:15:54;14.60;99.90
23237;DHT22;11787;52.018;8.570;2024-02-16T14:18:19;14.60;99.90
23237;DHT22;11787;52.018;8.570;2024-02-16T14:20:45;14.60;99.90
23237;DHT22;11787;52.018;8.570;2024-02-16T14:23:10;14.60;99.90
23237;DHT22;11787;52.018;8.570;2024-02-16T14:25:36;14.60;99.90
23237;DHT22;11787;52.018;8.570;2024-02-16T14:28:03;14.50;99.90
23237;DHT22;11787;52.018;8.570;2024-02-16T14:30:29;14.60;99.90
23237;DHT22;11787;52.018;8.570;2024-02-16T14:32:55;14.50;99.90
23237;DHT22;11787;52.018;8.570;2024-02-16T14:35:20;14.40;99.90
23237;DHT22;11787;52.018;8.570;2024-02-16T14:37:47;14.40;99.90
23237;DHT22;11787;52.018;8.570;2024-02-16T14:40:13;14.40;99.90
23237;DHT22;11787;52.018;8.570;2024-02-16T14:42:38;14.40;99.90
23237;DHT22;11787;52.018;8.570;2024-02-16T14:45:05;14.20;99.90
23237;DHT22;11787;52.018;8.570;2024-02-16T14:47:35;14.30;99.90
23237;DHT22;11787;52.018;8.570;2024-02-16T14:50:01;14.30;99.90
23237;DHT22;11787;52.018;8.570;2024-02-16T14:52:29;14.30;99.90
23237;DHT22;11787;52.018;8.570;2024-02-16T14:54:54;14.20;99.90
23237;DHT22;11787;52.018;8.570;2024-02-16T14:57:22;14.20;99.90
23237;DHT22;11787;52.018;8.570;2024-02-16T14:59:50;14.20;99.90
23237;DHT22;11787;52.018;8.570;2024-02-16T15:02:21;14.00;99.90
23237;DHT22;11787;52.018;8.570;2024-02-16T15:04:47;13.90;99.90
23237;DHT22;11787;52.018;8.570;2024-02-16T15:07:13;13.80;99.90
23237;DHT22;11787;52.018;8.570;2024-02-16T15:09:38;13.70;99.90
23237;DHT22;11787;52.018;8.570;2024-02-16T15:12:04;13.70;99.90
23237;DHT22;11787;52.018;8.570;2024-02-16T15:14:30;13.60;99.90
23237;DHT22;11787;52.018;8.570;2024-02-16T15:16:55;13.50;99.90
23237;DHT22;11787;52.018;8.570;2024-02-16T15:19:21;13.40;99.90
23237;DHT22;11787;52.018;8.570;2024-02-16T15:21:46;13.40;99.90
23237;DHT22;11787;52.018;8.570;2024-02-16T15:24:12;13.30;99.90
23237;DHT22;11787;52.018;8.570;2024-02-16T15:26:38;13.20;99.90
23237;DHT22;11787;52.018;8.570;2024-02-16T15:29:03;13.20;99.90
23237;DHT22;11787;52.018;8.570;2024-02-16T15:31:29;13.20;99.90
23237;DHT22;11787;52.018;8.570;2024-02-16T15:33:54;13.20;99.90
23237;DHT22;11787;52.018;8.570;2024-02-16T15:36:20;13.10;99.90
23237;DHT22;11787;52.018;8.570;2024-02-16T15:38:45;13.10;99.90
23237;DHT22;11787;52.018;8.570;2024-02-16T15:41:11;13.00;99.90
23237;DHT22;11787;52.018;8.570;2024-02-16T15:43:36;13.10;99.90
23237;DHT22;11787;52.018;8.570;2024-02-16T15:46:02;13.10;99.90
23237;DHT22;11787;52.018;8.570;2024-02-16T15:48:28;13.00;99.90